createdAt,value
2023-02-21T00:02:29.463Z,6.45
2023-02-21T00:05:30.576Z,8.80
2023-02-21T00:08:31.598Z,8.55
2023-02-21T00:11:32.610Z,8.65
2023-02-21T00:14:33.788Z,9.52
2023-02-21T00:17:34.845Z,8.77
2023-02-21T00:20:36.033Z,8.25
2023-02-21T00:23:37.063Z,9.40
2023-02-21T00:26:39.172Z,9.68
2023-02-21T00:29:40.424Z,9.30
2023-02-21T00:32:41.433Z,8.70
2023-02-21T00:35:42.341Z,9.07
2023-02-21T00:38:43.285Z,8.27
2023-02-21T00:41:44.122Z,7.70
2023-02-21T00:44:45.742Z,7.05
2023-02-21T00:47:46.445Z,7.47
2023-02-21T00:50:47.523Z,6.35
2023-02-21T00:53:48.698Z,7.43
2023-02-21T00:56:49.795Z,8.93
2023-02-21T00:59:50.549Z,8.38
2023-02-21T01:02:51.698Z,8.00
2023-02-21T01:05:52.434Z,7.53
2023-02-21T01:08:53.660Z,9.00
2023-02-21T01:11:54.440Z,9.82
2023-02-21T01:14:55.346Z,9.38
2023-02-21T01:17:55.948Z,11.00
2023-02-21T01:20:57.082Z,10.63
2023-02-21T01:23:57.951Z,8.93
2023-02-21T01:26:59.143Z,9.55
2023-02-21T01:29:59.801Z,9.10
2023-02-21T01:33:00.896Z,9.88
2023-02-21T01:36:01.956Z,8.88
2023-02-21T01:39:02.874Z,9.85
2023-02-21T01:42:04.074Z,8.43
2023-02-21T01:45:07.088Z,9.35
2023-02-21T01:48:07.891Z,9.88
2023-02-21T01:51:13.453Z,9.02
2023-02-21T01:54:14.708Z,11.63
2023-02-21T01:57:19.558Z,9.50
2023-02-21T02:00:25.254Z,9.90
2023-02-21T02:03:31.347Z,13.82
2023-02-21T02:06:35.547Z,12.75
2023-02-21T02:09:40.706Z,14.07
2023-02-21T02:12:42.413Z,12.25
2023-02-21T02:15:27.632Z,11.23
2023-02-21T02:18:46.043Z,9.52
2023-02-21T02:21:43.411Z,8.88
2023-02-21T02:24:50.941Z,8.75
2023-02-21T02:27:51.712Z,7.75
2023-02-21T02:30:59.644Z,8.68
2023-02-21T02:33:51.544Z,10.25
2023-02-21T02:36:43.179Z,8.40
2023-02-21T02:39:38.456Z,8.52
2023-02-21T02:42:27.873Z,8.70
2023-02-21T02:45:44.408Z,7.20
2023-02-21T02:48:36.946Z,8.13
2023-02-21T02:51:20.547Z,7.10
2023-02-21T02:54:03.598Z,7.43
2023-02-21T02:56:47.174Z,7.90
2023-02-21T02:59:33.414Z,8.05
2023-02-21T03:02:44.077Z,8.43
2023-02-21T03:05:50.723Z,9.48
2023-02-21T03:08:40.607Z,7.47
2023-02-21T03:11:25.413Z,8.73
2023-02-21T03:14:17.583Z,9.25
2023-02-21T03:17:09.355Z,9.90
2023-02-21T03:19:54.380Z,12.68
2023-02-21T03:22:37.026Z,11.32
2023-02-21T03:25:21.720Z,10.02
2023-02-21T03:28:04.720Z,9.40
2023-02-21T03:31:00.600Z,9.43
2023-02-21T03:33:45.380Z,13.40
2023-02-21T03:36:28.213Z,10.85
2023-02-21T03:39:10.910Z,9.85
2023-02-21T03:41:53.517Z,9.30
2023-02-21T03:44:35.836Z,9.43
2023-02-21T03:47:18.466Z,11.52
2023-02-21T03:50:00.759Z,11.60
2023-02-21T03:52:43.428Z,13.00
2023-02-21T03:55:25.822Z,13.65
2023-02-21T03:58:09.253Z,14.50
2023-02-21T04:00:54.016Z,13.45
2023-02-21T04:03:37.200Z,13.23
2023-02-21T04:06:20.019Z,13.52
2023-02-21T04:09:02.605Z,13.52
2023-02-21T04:11:46.922Z,15.50
2023-02-21T04:14:29.863Z,12.60
2023-02-21T04:17:12.529Z,13.63
2023-02-21T04:19:55.651Z,13.02
2023-02-21T04:22:38.814Z,13.13
2023-02-21T04:25:21.673Z,13.52
2023-02-21T04:28:07.698Z,12.45
2023-02-21T04:30:50.313Z,11.88
2023-02-21T04:33:32.818Z,10.45
2023-02-21T04:36:16.124Z,10.73
2023-02-21T04:38:59.911Z,10.43
2023-02-21T04:41:43.033Z,10.95
2023-02-21T04:44:25.437Z,10.90
2023-02-21T04:47:07.924Z,11.35
2023-02-21T04:49:52.522Z,11.02
2023-02-21T04:52:35.568Z,10.77
2023-02-21T04:55:18.064Z,10.13
2023-02-21T04:58:01.876Z,9.43
2023-02-21T05:00:44.606Z,8.25
2023-02-21T05:03:27.352Z,9.20
2023-02-21T05:06:09.520Z,8.68
2023-02-21T05:08:52.459Z,9.18
2023-02-21T05:11:35.120Z,8.50
2023-02-21T05:14:20.287Z,8.38
2023-02-21T05:17:02.500Z,7.97
2023-02-21T05:19:47.173Z,7.88
2023-02-21T05:22:29.548Z,7.80
2023-02-21T05:25:20.391Z,7.03
2023-02-21T05:28:02.734Z,6.75
2023-02-21T05:30:46.091Z,10.05
2023-02-21T05:33:28.821Z,11.60
2023-02-21T05:36:11.292Z,7.40
2023-02-21T05:38:55.805Z,7.40
2023-02-21T05:41:38.903Z,8.48
2023-02-21T05:44:21.648Z,6.15
2023-02-21T05:47:04.629Z,3.63
2023-02-21T05:49:47.191Z,3.75
2023-02-21T05:52:29.937Z,3.63
2023-02-21T05:55:12.449Z,2.40
2023-02-21T05:57:55.695Z,3.13
2023-02-21T06:00:38.317Z,3.70
2023-02-21T06:03:20.869Z,2.13
2023-02-21T06:06:03.644Z,2.72
2023-02-21T06:08:48.071Z,3.70
2023-02-21T06:11:37.875Z,3.78
2023-02-21T06:14:21.378Z,1.75
2023-02-21T06:17:04.124Z,5.78
2023-02-21T06:19:47.387Z,2.78
2023-02-21T06:22:30.042Z,14.00
2023-02-21T06:25:12.547Z,4.70
2023-02-21T06:27:55.339Z,3.85
2023-02-21T06:30:37.806Z,9.13
2023-02-21T06:33:20.142Z,50.92
2023-02-21T06:36:12.863Z,11.43
2023-02-21T06:38:57.066Z,6.55
2023-02-21T06:41:39.809Z,5.47
2023-02-21T06:44:22.195Z,4.20
2023-02-21T06:47:04.715Z,2.80
2023-02-21T06:49:47.048Z,3.67
2023-02-21T06:52:31.472Z,4.82
2023-02-21T06:55:13.742Z,9.25
2023-02-21T06:57:56.189Z,5.53
2023-02-21T07:00:38.535Z,8.32
2023-02-21T07:03:21.147Z,7.65
2023-02-21T07:06:03.432Z,6.05
2023-02-21T07:08:45.966Z,12.93
2023-02-21T07:11:30.300Z,10.68
2023-02-21T07:14:13.177Z,10.90
2023-02-21T07:16:55.372Z,13.30
2023-02-21T07:19:37.909Z,21.00
2023-02-21T07:22:26.112Z,13.02
2023-02-21T07:25:08.755Z,11.63
2023-02-21T07:27:52.871Z,10.52
2023-02-21T07:30:35.558Z,14.82
2023-02-21T07:33:18.258Z,10.70
2023-02-21T07:36:00.956Z,16.08
2023-02-21T07:38:43.360Z,11.77
2023-02-21T07:41:27.260Z,11.15
2023-02-21T07:44:10.231Z,16.23
2023-02-21T07:46:52.872Z,6.88
2023-02-21T07:49:39.095Z,11.38
2023-02-21T07:52:23.430Z,10.52
2023-02-21T07:55:06.483Z,9.50
2023-02-21T07:57:49.001Z,9.73
2023-02-21T08:00:32.227Z,9.65
2023-02-21T08:03:14.898Z,9.13
2023-02-21T08:05:58.188Z,7.72
2023-02-21T08:08:40.830Z,11.02
2023-02-21T08:11:23.156Z,11.73
2023-02-21T08:14:06.010Z,9.10
2023-02-21T08:16:48.374Z,12.35
2023-02-21T08:19:30.981Z,9.85
2023-02-21T08:22:13.324Z,9.88
2023-02-21T08:24:55.841Z,13.75
2023-02-21T08:27:42.248Z,15.35
2023-02-21T08:30:25.431Z,9.23
2023-02-21T08:33:07.983Z,6.53
2023-02-21T08:35:50.930Z,8.68
2023-02-21T08:38:34.026Z,10.60
2023-02-21T08:41:17.086Z,12.10
2023-02-21T08:43:59.652Z,8.15
2023-02-21T08:46:42.601Z,7.55
2023-02-21T08:49:25.044Z,9.45
2023-02-21T08:52:08.708Z,7.43
2023-02-21T08:54:54.101Z,12.30
2023-02-21T08:57:36.686Z,8.80
2023-02-21T09:00:23.532Z,10.50
2023-02-21T09:03:06.229Z,14.57
2023-02-21T09:05:48.924Z,12.00
2023-02-21T09:08:31.481Z,8.85
2023-02-21T09:11:14.425Z,16.65
2023-02-21T09:13:57.305Z,9.80
2023-02-21T09:16:39.865Z,11.75
2023-02-21T09:19:22.450Z,10.20
2023-02-21T09:22:07.767Z,18.20
2023-02-21T09:24:50.303Z,11.27
2023-02-21T09:27:38.552Z,11.32
2023-02-21T09:30:24.552Z,9.23
2023-02-21T09:33:07.120Z,11.90
2023-02-21T09:35:51.002Z,8.85
2023-02-21T09:38:33.464Z,12.57
2023-02-21T09:41:16.464Z,12.10
2023-02-21T09:44:00.968Z,14.52
2023-02-21T09:46:47.703Z,19.33
2023-02-21T09:49:41.954Z,16.60
2023-02-21T09:52:39.832Z,16.05
2023-02-21T09:55:36.504Z,9.57
2023-02-21T09:58:21.050Z,10.80
2023-02-21T10:01:09.187Z,11.60
2023-02-21T10:04:15.231Z,8.63
2023-02-21T10:10:05.271Z,10.25
2023-02-21T10:12:56.390Z,9.30
2023-02-21T10:16:02.459Z,12.50
2023-02-21T10:21:46.032Z,9.82
2023-02-21T10:24:29.190Z,15.10
2023-02-21T10:27:24.775Z,11.80
2023-02-21T10:30:10.547Z,15.40
2023-02-21T10:32:54.019Z,12.95
2023-02-21T10:35:38.387Z,23.55
2023-02-21T10:38:25.720Z,26.65
2023-02-21T10:41:09.013Z,18.48
2023-02-21T10:43:59.356Z,22.48
2023-02-21T10:47:11.281Z,20.65
2023-02-21T10:50:05.509Z,20.73
2023-02-21T10:52:50.178Z,20.98
2023-02-21T10:55:33.693Z,32.15
2023-02-21T10:58:26.754Z,25.30
2023-02-21T11:01:30.654Z,24.58
2023-02-21T11:04:21.907Z,12.05
2023-02-21T11:07:11.162Z,20.90
2023-02-21T11:09:55.796Z,21.35
2023-02-21T11:12:38.515Z,16.88
2023-02-21T11:15:24.022Z,17.50
2023-02-21T11:18:39.332Z,23.92
2023-02-21T11:21:21.831Z,19.10
2023-02-21T11:24:06.821Z,18.88
2023-02-21T11:26:53.209Z,24.90
2023-02-21T11:29:36.767Z,16.65
2023-02-21T11:32:40.308Z,14.43
2023-02-21T11:35:27.533Z,16.27
2023-02-21T11:38:31.217Z,22.08
2023-02-21T11:41:35.724Z,18.95
2023-02-21T11:44:35.370Z,19.02
2023-02-21T11:47:25.520Z,16.52
2023-02-21T11:50:07.920Z,13.35
2023-02-21T11:52:50.694Z,17.98
2023-02-21T11:55:35.130Z,12.48
2023-02-21T11:58:44.051Z,16.02
2023-02-21T12:01:42.035Z,18.80
2023-02-21T12:04:30.439Z,16.52
2023-02-21T12:07:25.431Z,14.63
2023-02-21T12:10:43.602Z,16.53
2023-02-21T12:13:36.657Z,13.07
2023-02-21T12:16:34.647Z,9.80
2023-02-21T12:19:21.807Z,18.73
2023-02-21T12:22:08.873Z,10.43
2023-02-21T12:25:29.568Z,15.02
2023-02-21T12:28:27.368Z,13.82
2023-02-21T12:31:36.695Z,20.10
2023-02-21T12:35:03.513Z,12.90
2023-02-21T12:38:05.188Z,19.40
2023-02-21T12:40:55.118Z,24.67
2023-02-21T12:43:41.159Z,11.82
2023-02-21T12:46:57.777Z,17.58
2023-02-21T12:49:42.139Z,12.45
2023-02-21T12:52:54.441Z,25.27
2023-02-21T12:55:41.879Z,10.68
2023-02-21T12:58:26.586Z,14.98
2023-02-21T13:01:33.654Z,12.85
2023-02-21T13:04:22.434Z,10.07
2023-02-21T13:07:19.209Z,10.13
2023-02-21T13:10:27.772Z,11.63
2023-02-21T13:13:15.241Z,10.18
2023-02-21T13:15:59.378Z,13.27
2023-02-21T13:19:02.371Z,13.60
2023-02-21T13:21:53.945Z,11.80
2023-02-21T13:25:17.774Z,15.20
2023-02-21T13:28:24.643Z,12.07
2023-02-21T13:31:18.868Z,17.50
2023-02-21T13:34:03.283Z,12.00
2023-02-21T13:36:47.248Z,15.23
2023-02-21T13:39:36.513Z,12.00
2023-02-21T13:42:25.347Z,13.32
2023-02-21T13:45:22.396Z,8.73
2023-02-21T13:48:07.504Z,16.42
2023-02-21T13:50:53.399Z,15.00
2023-02-21T13:54:09.199Z,14.93
2023-02-21T13:56:52.435Z,13.90
2023-02-21T13:59:36.246Z,27.67
2023-02-21T14:02:33.062Z,15.35
2023-02-21T14:05:15.587Z,15.45
2023-02-21T14:08:07.521Z,12.95
2023-02-21T14:10:53.238Z,16.92
2023-02-21T14:13:38.520Z,12.43
2023-02-21T14:16:37.048Z,14.65
2023-02-21T14:19:50.403Z,19.92
2023-02-21T14:22:33.298Z,19.42
2023-02-21T14:25:24.141Z,25.25
2023-02-21T14:28:45.012Z,18.63
2023-02-21T14:32:08.589Z,24.00
2023-02-21T14:34:50.949Z,22.60
2023-02-21T14:37:45.013Z,18.35
2023-02-21T14:40:33.394Z,19.92
2023-02-21T14:43:58.103Z,21.10
2023-02-21T14:47:17.164Z,29.20
2023-02-21T14:50:21.149Z,23.55
2023-02-21T14:53:22.311Z,20.77
2023-02-21T14:56:26.478Z,20.50
2023-02-21T15:02:18.307Z,24.27
2023-02-21T15:05:06.495Z,16.88
2023-02-21T15:07:49.326Z,20.70
2023-02-21T15:10:40.033Z,26.45
2023-02-21T15:13:31.856Z,24.35
2023-02-21T15:16:16.311Z,19.75
2023-02-21T15:19:01.384Z,30.52
2023-02-21T15:21:43.675Z,17.08
2023-02-21T15:24:26.210Z,23.23
2023-02-21T15:27:13.193Z,21.15
2023-02-21T15:30:17.038Z,34.78
2023-02-21T15:33:11.002Z,23.55
2023-02-21T15:36:01.008Z,21.80
2023-02-21T15:38:52.732Z,32.80
2023-02-21T15:41:47.607Z,39.85
2023-02-21T15:44:35.936Z,27.52
2023-02-21T15:47:24.017Z,23.25
2023-02-21T15:50:32.662Z,25.00
2023-02-21T15:53:15.493Z,29.42
2023-02-21T15:56:21.921Z,36.53
2023-02-21T15:59:08.861Z,22.75
2023-02-21T16:02:09.793Z,24.23
2023-02-21T16:04:53.542Z,31.63
2023-02-21T16:07:40.372Z,23.50
2023-02-21T16:10:24.751Z,21.65
2023-02-21T16:13:07.710Z,27.13
2023-02-21T16:15:50.496Z,25.48
2023-02-21T16:18:33.309Z,27.55
2023-02-21T16:21:24.977Z,31.83
2023-02-21T16:24:31.601Z,24.83
2023-02-21T16:27:17.169Z,18.13
2023-02-21T16:29:59.433Z,21.88
2023-02-21T16:32:45.187Z,35.47
2023-02-21T16:35:28.508Z,41.27
2023-02-21T16:38:15.508Z,26.52
2023-02-21T16:40:58.005Z,29.98
2023-02-21T16:43:40.775Z,59.65
2023-02-21T16:46:30.108Z,27.50
2023-02-21T16:49:13.073Z,25.90
2023-02-21T16:51:55.617Z,37.28
2023-02-21T16:54:38.157Z,29.42
2023-02-21T16:57:20.985Z,39.97
2023-02-21T17:00:04.552Z,43.67
2023-02-21T17:02:48.457Z,29.42
2023-02-21T17:05:31.198Z,30.05
2023-02-21T17:08:14.330Z,27.02
2023-02-21T17:10:57.968Z,27.95
2023-02-21T17:13:40.475Z,25.58
2023-02-21T17:16:24.375Z,25.77
2023-02-21T17:19:12.540Z,27.83
2023-02-21T17:21:58.176Z,26.75
2023-02-21T17:24:41.948Z,28.30
2023-02-21T17:27:24.742Z,30.63
2023-02-21T17:30:09.020Z,32.10
2023-02-21T17:32:52.832Z,36.10
2023-02-21T17:35:36.159Z,31.08
2023-02-21T17:38:19.182Z,30.52
2023-02-21T17:41:02.111Z,35.20
2023-02-21T17:43:48.728Z,23.92
2023-02-21T17:46:32.203Z,26.63
2023-02-21T17:49:18.731Z,25.70
2023-02-21T17:52:01.327Z,29.88
2023-02-21T17:54:44.271Z,27.60
2023-02-21T17:57:27.109Z,26.48
2023-02-21T18:00:16.560Z,28.13
2023-02-21T18:02:59.478Z,25.85
2023-02-21T18:05:42.374Z,32.78
2023-02-21T18:08:24.727Z,30.40
2023-02-21T18:11:12.109Z,26.42
2023-02-21T18:13:57.114Z,32.75
2023-02-21T18:16:40.342Z,22.65
2023-02-21T18:19:24.001Z,37.13
2023-02-21T18:22:07.404Z,32.33
2023-02-21T18:24:49.922Z,20.13
2023-02-21T18:27:32.984Z,28.48
2023-02-21T18:30:17.933Z,19.85
2023-02-21T18:33:01.168Z,31.75
2023-02-21T18:35:44.477Z,21.95
2023-02-21T18:38:28.440Z,23.20
2023-02-21T18:41:16.139Z,26.38
2023-02-21T18:43:59.744Z,20.98
2023-02-21T18:46:50.394Z,27.30
2023-02-21T18:49:38.952Z,26.20
2023-02-21T18:52:22.763Z,32.22
2023-02-21T18:55:06.277Z,25.50
2023-02-21T18:57:50.224Z,23.30
2023-02-21T19:00:36.706Z,35.88
2023-02-21T19:03:20.573Z,23.45
2023-02-21T19:06:03.635Z,25.15
2023-02-21T19:08:47.370Z,24.92
2023-02-21T19:11:30.264Z,18.58
2023-02-21T19:14:12.875Z,19.60
2023-02-21T19:16:57.031Z,23.17
2023-02-21T19:19:42.130Z,25.83
2023-02-21T19:22:24.816Z,26.63
2023-02-21T19:25:07.838Z,21.65
2023-02-21T19:27:51.797Z,19.08
2023-02-21T19:30:37.232Z,26.80
2023-02-21T19:33:20.105Z,27.85
2023-02-21T19:36:07.016Z,23.92
2023-02-21T19:38:50.434Z,20.70
2023-02-21T19:41:33.009Z,24.75
2023-02-21T19:44:16.105Z,24.13
2023-02-21T19:46:58.955Z,24.58
2023-02-21T19:49:45.945Z,27.67
2023-02-21T19:52:28.981Z,26.95
2023-02-21T19:55:11.917Z,33.58
2023-02-21T19:57:54.399Z,23.50
2023-02-21T20:00:39.959Z,24.15
2023-02-21T20:03:22.183Z,27.95
2023-02-21T20:06:05.133Z,28.33
2023-02-21T20:08:48.848Z,30.77
2023-02-21T20:11:35.204Z,20.38
2023-02-21T20:14:19.013Z,21.55
2023-02-21T20:17:02.095Z,19.02
2023-02-21T20:19:45.424Z,24.63
2023-02-21T20:22:34.165Z,25.88
2023-02-21T20:25:18.093Z,26.95
2023-02-21T20:28:03.089Z,17.60
2023-02-21T20:30:45.576Z,23.23
2023-02-21T20:33:28.218Z,25.10
2023-02-21T20:36:10.702Z,24.83
2023-02-21T20:38:53.539Z,26.63
2023-02-21T20:41:39.133Z,22.10
2023-02-21T20:44:22.599Z,27.77
2023-02-21T20:47:09.988Z,20.70
2023-02-21T20:49:53.746Z,23.08
2023-02-21T20:52:36.244Z,21.55
2023-02-21T20:55:22.363Z,27.20
2023-02-21T20:58:06.043Z,20.08
2023-02-21T21:00:50.189Z,23.48
2023-02-21T21:03:36.174Z,25.45
2023-02-21T21:06:19.787Z,17.50
2023-02-21T21:09:02.471Z,28.23
2023-02-21T21:11:45.792Z,25.13
2023-02-21T21:14:34.196Z,23.15
2023-02-21T21:17:19.232Z,25.90
2023-02-21T21:20:02.536Z,24.05
2023-02-21T21:22:45.713Z,33.70
2023-02-21T21:25:28.252Z,39.22
2023-02-21T21:28:13.369Z,25.17
2023-02-21T21:30:56.220Z,25.60
2023-02-21T21:33:38.897Z,21.15
2023-02-21T21:36:21.230Z,26.15
2023-02-21T21:39:04.274Z,23.27
2023-02-21T21:41:50.219Z,23.48
2023-02-21T21:44:33.166Z,26.52
2023-02-21T21:47:15.983Z,18.23
2023-02-21T21:49:59.625Z,25.63
2023-02-21T21:52:44.575Z,26.17
2023-02-21T21:55:30.482Z,21.38
2023-02-21T21:58:14.076Z,23.17
2023-02-21T22:00:56.763Z,21.27
2023-02-21T22:03:39.128Z,23.00
2023-02-21T22:06:22.040Z,27.05
2023-02-21T22:09:07.940Z,21.67
2023-02-21T22:11:52.673Z,24.33
2023-02-21T22:14:35.435Z,25.75
2023-02-21T22:17:18.881Z,25.20
2023-02-21T22:20:01.847Z,22.10
2023-02-21T22:22:46.876Z,25.52
2023-02-21T22:25:31.594Z,23.10
2023-02-21T22:28:14.225Z,21.10
2023-02-21T22:30:56.452Z,30.95
2023-02-21T22:33:39.169Z,26.17
2023-02-21T22:36:21.390Z,26.17
2023-02-21T22:39:09.623Z,28.90
2023-02-21T22:41:52.576Z,25.13
2023-02-21T22:44:37.692Z,27.00
2023-02-21T22:47:21.468Z,22.27
2023-02-21T22:50:05.372Z,25.50
2023-02-21T22:53:03.962Z,28.52
2023-02-21T22:55:52.362Z,31.30
2023-02-21T22:58:35.607Z,27.88
2023-02-21T23:01:20.995Z,28.27
2023-02-21T23:04:16.162Z,26.42
2023-02-21T23:07:00.033Z,30.95
2023-02-21T23:09:42.202Z,24.27
2023-02-21T23:12:24.688Z,27.30
2023-02-21T23:15:07.517Z,28.83
2023-02-21T23:17:51.417Z,31.25
2023-02-21T23:20:33.878Z,24.42
2023-02-21T23:23:16.948Z,25.77
2023-02-21T23:25:59.848Z,23.10
2023-02-21T23:28:42.306Z,28.42
2023-02-21T23:31:25.316Z,29.33
2023-02-21T23:34:09.992Z,26.17
2023-02-21T23:36:52.128Z,25.77
2023-02-21T23:39:34.769Z,36.42
2023-02-21T23:42:17.602Z,31.40
2023-02-21T23:45:00.301Z,24.20
2023-02-21T23:47:42.714Z,24.38
2023-02-21T23:50:30.615Z,29.52
2023-02-21T23:53:22.719Z,38.63
2023-02-21T23:56:05.901Z,40.17
2023-02-21T23:58:50.093Z,34.15
